Arapaho — WCX9424 — position and weather

sailwx.info

Track history (hours):
 
Tides and Currents Weather Stations Pressure Air Temp Water Temp Dewpoint Dewpoint Depression Visibility Wind Speed Wind Dir Waves Ship Positions

Arapaho

Owner: SAUSE BROTHERS OCEAN TOWING CO INC, LONG BEACH, CA. More information available from US FCC via Universal Licensing System and Coast Guard Vessel Documentation Center.

Last reported at 2015-May-24 22:34 UTC. Time now 2015-May-24 23:25 UTC.
Position N 33°45' W 118°12'.

Length 37 m; draft 1.5 m.

Type: Towing. MMSI: 367004270.

Date/timePositionNaut miles runAvg speedWind from/ knotsBaromVisibWave heightAir tempDewpointWater temp
2015-May-24 22:34N 33°45' W 118°12'0 0.0
2015-May-24 21:33N 33°45' W 118°12'0 0.0
2015-May-24 20:33N 33°45' W 118°12'0 0.0
2015-May-24 17:34N 33°45' W 118°12'0 0.0
2015-May-24 16:34N 33°45' W 118°12'0 0.2
2015-May-24 14:18N 33°44' W 118°12'0 0.2
2015-May-24 11:26N 33°45' W 118°12'0 0.0
2015-May-24 10:31N 33°45' W 118°12'0 0.0
2015-May-24 08:20N 33°45' W 118°12'0 0.0
2015-May-24 07:20N 33°45' W 118°12'0 0.0
2015-May-24 05:30N 33°45' W 118°12'0 0.0
2015-May-24 04:11N 33°45' W 118°12'0 0.0
2015-May-24 03:34N 33°45' W 118°12'0 0.0
2015-May-24 02:33N 33°45' W 118°12'0 0.0
2015-May-24 01:33N 33°45' W 118°12'1 0.9
2015-May-24 00:33N 33°45' W 118°13'2 1.2
2015-May-23 23:09N 33°44' W 118°13'1 0.9
2015-May-23 22:34N 33°44' W 118°12'1 0.9
2015-May-23 21:34N 33°45' W 118°12'0 0.0
2015-May-23 20:29N 33°45' W 118°12'0 0.0
2015-May-23 19:33N 33°45' W 118°12'0 0.0
2015-May-23 18:33N 33°45' W 118°12'0 0.0
2015-May-23 17:34N 33°45' W 118°12'0 0.0
2015-May-23 16:33N 33°45' W 118°12'0 0.0
2015-May-23 15:33N 33°45' W 118°12'0 0.0
2015-May-23 14:32N 33°45' W 118°12'2 1.6
2015-May-23 13:33N 33°44' W 118°10'1 0.6
2015-May-23 11:29N 33°46' W 118°11'0 0.0
2015-May-23 10:23N 33°46' W 118°11'1 1.6
2015-May-23 09:32N 33°45' W 118°10'1 0.6
2015-May-23 08:34N 33°45' W 118°10'1 0.6
2015-May-23 07:34N 33°45' W 118°10'0 0.0
2015-May-23 06:33N 33°45' W 118°10'1 0.6
2015-May-23 05:34N 33°45' W 118°10'0 0.0
2015-May-23 04:33N 33°45' W 118°10'0 0.0
2015-May-23 03:33N 33°45' W 118°10'2 2.2
2015-May-23 02:32N 33°45' W 118°12'0 0.0
2015-May-23 01:31N 33°45' W 118°12'0 0.0
2015-May-23 00:33N 33°45' W 118°12'0 0.0
2015-May-22 23:34N 33°45' W 118°12'0 0.1
2015-May-22 22:33N 33°45' W 118°12'0 0.1
2015-May-22 21:34N 33°45' W 118°12'0 0.1
2015-May-22 20:33N 33°45' W 118°12'3 3.2
2015-May-22 19:33N 33°44' W 118°08'1 1.1
2015-May-22 18:33N 33°45' W 118°10'1 1.4
2015-May-22 17:33N 33°46' W 118°11'1 1.0
2015-May-22 16:33N 33°45' W 118°10'2 1.5
2015-May-22 15:05N 33°45' W 118°12'0 0.0
2015-May-22 14:33N 33°45' W 118°12'2 0.9
2015-May-22 12:14N 33°45' W 118°10'1 0.9
2015-May-22 11:33N 33°45' W 118°10'1 0.6
2015-May-22 10:33N 33°45' W 118°10'0 0.1
2015-May-22 09:33N 33°45' W 118°10'1 0.6
2015-May-22 08:34N 33°45' W 118°10'1 0.6
2015-May-22 07:33N 33°45' W 118°10'1 0.6
2015-May-22 06:33N 33°45' W 118°10'0 0.0
2015-May-22 05:34N 33°45' W 118°10'0 0.0
2015-May-22 04:33N 33°45' W 118°10'2 2.2
2015-May-22 03:29N 33°44' W 118°12'0 0.3
2015-May-22 02:32N 33°45' W 118°12'0 0.0
2015-May-22 01:33N 33°45' W 118°12'0 0.0
2015-May-22 00:31N 33°45' W 118°12'0 0.0
2015-May-21 23:31N 33°45' W 118°12'0 0.4
2015-May-21 22:33N 33°44' W 118°12'3 3.3
2015-May-21 21:34N 33°44' W 118°08'1 1.3
2015-May-21 20:33N 33°45' W 118°10'2 2.3
2015-May-21 19:33N 33°45' W 118°12'3 2.6
2015-May-21 18:34N 33°45' W 118°09'1 0.5
2015-May-21 17:33N 33°45' W 118°09'1 1.0
2015-May-21 16:33N 33°45' W 118°10'2 2.0
2015-May-21 15:33N 33°44' W 118°11'1 0.9
2015-May-21 14:23N 33°45' W 118°12'2 0.7
2015-May-21 11:31N 33°45' W 118°10'1 0.4
2015-May-21 08:33N 33°46' W 118°11'1 1.2
2015-May-21 07:28N 33°45' W 118°10'0 0.4
2015-May-21 06:34N 33°45' W 118°10'0 0.2
2015-May-21 05:25N 33°45' W 118°10'0 0.4
2015-May-21 04:32N 33°45' W 118°10'2 1.9
2015-May-21 03:23N 33°45' W 118°12'0 0.0
2015-May-20 23:33N 33°45' W 118°12'1 1.4
2015-May-20 22:33N 33°45' W 118°11'0 0.4
2015-May-20 21:32N 33°45' W 118°10'2 1.7
2015-May-20 20:29N 33°44' W 118°11'1 0.6
2015-May-20 19:30N 33°44' W 118°11'2 2.0
2015-May-20 18:33N 33°44' W 118°08'0 0.0
2015-May-20 17:33N 33°44' W 118°08'0 0.0
2015-May-20 16:33N 33°44' W 118°08'3 2.4
2015-May-20 15:27N 33°44' W 118°11'1 1.1
2015-May-20 14:34N 33°45' W 118°12'0 0.0
2015-May-20 13:32N 33°45' W 118°12'2 2.1
2015-May-20 12:31N 33°45' W 118°10'0 0.1
2015-May-20 10:33N 33°45' W 118°10'0 0.1
2015-May-20 08:33N 33°45' W 118°10'0 0.0
2015-May-20 06:16N 33°45' W 118°10'0 0.1
2015-May-20 05:33N 33°45' W 118°10'1 1.4
2015-May-20 04:33N 33°46' W 118°11'2 1.7
2015-May-20 03:30N 33°44' W 118°11'1 0.4
2015-May-20 00:04N 33°45' W 118°12'2 3.9
2015-May-19 23:33N 33°45' W 118°10'1 1.4
2015-May-19 22:33N 33°44' W 118°08'2 1.9
2015-May-19 21:33N 33°44' W 118°11'1 1.4
2015-May-19 20:33N 33°44' W 118°12'3 3.1
2015-May-19 19:28N 33°44' W 118°08'1 1.4
2015-May-19 18:32N 33°45' W 118°10'1 0.9
2015-May-19 17:23N 33°46' W 118°11'0 0.0
2015-May-19 16:24N 33°46' W 118°11'2 2.3
2015-May-19 15:34N 33°44' W 118°12'1 0.9
2015-May-19 14:33N 33°45' W 118°12'0 0.1
2015-May-19 13:08N 33°44' W 118°12'2 3.7
2015-May-19 12:33N 33°45' W 118°10'0 0.0
2015-May-19 11:33N 33°45' W 118°10'1 0.6
2015-May-19 10:33N 33°45' W 118°10'1 0.6
2015-May-19 09:33N 33°45' W 118°10'0 0.4
2015-May-19 08:33N 33°45' W 118°10'0 0.2
2015-May-19 07:33N 33°45' W 118°10'1 0.6
2015-May-19 06:33N 33°45' W 118°10'0 0.3
2015-May-19 05:34N 33°45' W 118°10'0 0.4
2015-May-19 04:33N 33°45' W 118°10'2 1.5
2015-May-19 03:23N 33°44' W 118°12'1 0.5
2015-May-19 01:29N 33°45' W 118°12'0 0.0
2015-May-19 00:33N 33°45' W 118°12'0 0.0
2015-May-18 23:34N 33°45' W 118°12'1 1.3
2015-May-18 22:34N 33°44' W 118°11'1 1.3
2015-May-18 21:34N 33°45' W 118°10'0 0.0
2015-May-18 20:33N 33°45' W 118°10'2 2.1
2015-May-18 19:33N 33°45' W 118°12'0 0.0
2015-May-18 18:33N 33°45' W 118°12'0 0.0
2015-May-18 17:30N 33°45' W 118°12'0 0.0
2015-May-18 16:32N 33°45' W 118°12'2 2.2
2015-May-18 15:33N 33°45' W 118°10'2 0.0
2015-May-16 13:11N 33°45' W 118°12'2 3.4
2015-May-16 12:33N 33°45' W 118°10'0 0.0
2015-May-16 11:33N 33°45' W 118°10'0 0.0
2015-May-16 10:33N 33°45' W 118°10'1 0.6
2015-May-16 09:33N 33°45' W 118°10'1 0.6
2015-May-16 08:32N 33°45' W 118°10'0 0.0
2015-May-16 07:33N 33°45' W 118°10'1 0.6
2015-May-16 06:33N 33°45' W 118°10'0 0.0
2015-May-16 05:33N 33°45' W 118°10'0 0.0
2015-May-16 04:33N 33°45' W 118°10'2 1.9
2015-May-16 03:27N 33°44' W 118°12'1 0.2
2015-May-15 22:32N 33°45' W 118°12'0 0.0
2015-May-15 21:33N 33°45' W 118°12'2 2.2
2015-May-15 20:33N 33°45' W 118°10'1 1.3
2015-May-15 19:33N 33°46' W 118°11'1 0.6
2015-May-15 18:33N 33°45' W 118°10'0 0.4
2015-May-15 17:33N 33°45' W 118°10'1 1.2
2015-May-15 16:32N 33°44' W 118°08'3 3.0
2015-May-15 15:33N 33°44' W 118°12'1 0.5
2015-May-15 14:28N 33°45' W 118°12'0 0.0
2015-May-15 13:33N 33°45' W 118°12'0 0.0
2015-May-15 12:33N 33°45' W 118°12'0 0.0
2015-May-15 11:33N 33°45' W 118°12'0 0.0
2015-May-15 10:33N 33°45' W 118°12'0 0.0
2015-May-15 09:33N 33°45' W 118°12'0 0.0
2015-May-15 08:33N 33°45' W 118°12'0 0.0
2015-May-15 07:33N 33°45' W 118°12'0 0.0
2015-May-15 06:33N 33°45' W 118°12'0 0.0
2015-May-15 05:28N 33°45' W 118°12'0 0.0
2015-May-15 04:33N 33°45' W 118°12'0 0.0
2015-May-15 03:32N 33°45' W 118°12'0 0.0
2015-May-15 02:28N 33°45' W 118°12'0 0.0
2015-May-15 01:33N 33°45' W 118°12'0 0.0
2015-May-15 00:33N 33°45' W 118°12'0 0.0
2015-May-14 23:30N 33°45' W 118°12'  
Track history (hours):
 
Tides and Currents Weather Stations Pressure Air Temp Water Temp Dewpoint Dewpoint Depression Visibility Wind Speed Wind Dir Waves Ship Positions

Arapaho

Owner: SAUSE BROTHERS OCEAN TOWING CO INC, LONG BEACH, CA. More information available from US FCC via Universal Licensing System and Coast Guard Vessel Documentation Center.

Last reported at 2015-May-24 22:34 UTC. Time now 2015-May-24 23:25 UTC.
Position N 33°45' W 118°12'.

Length 37 m; draft 1.5 m.

Type: Towing. MMSI: 367004270.

Date/timePositionNaut miles runAvg speedWind from/ knotsBaromVisibWave heightAir tempDewpointWater temp
2015-May-24 22:34N 33°45' W 118°12'0 0.0
2015-May-24 21:33N 33°45' W 118°12'0 0.0
2015-May-24 20:33N 33°45' W 118°12'0 0.0
2015-May-24 17:34N 33°45' W 118°12'0 0.0
2015-May-24 16:34N 33°45' W 118°12'0 0.2
2015-May-24 14:18N 33°44' W 118°12'0 0.2
2015-May-24 11:26N 33°45' W 118°12'0 0.0
2015-May-24 10:31N 33°45' W 118°12'0 0.0
2015-May-24 08:20N 33°45' W 118°12'0 0.0
2015-May-24 07:20N 33°45' W 118°12'0 0.0
2015-May-24 05:30N 33°45' W 118°12'0 0.0
2015-May-24 04:11N 33°45' W 118°12'0 0.0
2015-May-24 03:34N 33°45' W 118°12'0 0.0
2015-May-24 02:33N 33°45' W 118°12'0 0.0
2015-May-24 01:33N 33°45' W 118°12'1 0.9
2015-May-24 00:33N 33°45' W 118°13'2 1.2
2015-May-23 23:09N 33°44' W 118°13'1 0.9
2015-May-23 22:34N 33°44' W 118°12'1 0.9
2015-May-23 21:34N 33°45' W 118°12'0 0.0
2015-May-23 20:29N 33°45' W 118°12'0 0.0
2015-May-23 19:33N 33°45' W 118°12'0 0.0
2015-May-23 18:33N 33°45' W 118°12'0 0.0
2015-May-23 17:34N 33°45' W 118°12'0 0.0
2015-May-23 16:33N 33°45' W 118°12'0 0.0
2015-May-23 15:33N 33°45' W 118°12'0 0.0
2015-May-23 14:32N 33°45' W 118°12'2 1.6
2015-May-23 13:33N 33°44' W 118°10'1 0.6
2015-May-23 11:29N 33°46' W 118°11'0 0.0
2015-May-23 10:23N 33°46' W 118°11'1 1.6
2015-May-23 09:32N 33°45' W 118°10'1 0.6
2015-May-23 08:34N 33°45' W 118°10'1 0.6
2015-May-23 07:34N 33°45' W 118°10'0 0.0
2015-May-23 06:33N 33°45' W 118°10'1 0.6
2015-May-23 05:34N 33°45' W 118°10'0 0.0
2015-May-23 04:33N 33°45' W 118°10'0 0.0
2015-May-23 03:33N 33°45' W 118°10'2 2.2
2015-May-23 02:32N 33°45' W 118°12'0 0.0
2015-May-23 01:31N 33°45' W 118°12'0 0.0
2015-May-23 00:33N 33°45' W 118°12'0 0.0
2015-May-22 23:34N 33°45' W 118°12'0 0.1
2015-May-22 22:33N 33°45' W 118°12'0 0.1
2015-May-22 21:34N 33°45' W 118°12'0 0.1
2015-May-22 20:33N 33°45' W 118°12'3 3.2
2015-May-22 19:33N 33°44' W 118°08'1 1.1
2015-May-22 18:33N 33°45' W 118°10'1 1.4
2015-May-22 17:33N 33°46' W 118°11'1 1.0
2015-May-22 16:33N 33°45' W 118°10'2 1.5
2015-May-22 15:05N 33°45' W 118°12'0 0.0
2015-May-22 14:33N 33°45' W 118°12'2 0.9
2015-May-22 12:14N 33°45' W 118°10'1 0.9
2015-May-22 11:33N 33°45' W 118°10'1 0.6
2015-May-22 10:33N 33°45' W 118°10'0 0.1
2015-May-22 09:33N 33°45' W 118°10'1 0.6
2015-May-22 08:34N 33°45' W 118°10'1 0.6
2015-May-22 07:33N 33°45' W 118°10'1 0.6
2015-May-22 06:33N 33°45' W 118°10'0 0.0
2015-May-22 05:34N 33°45' W 118°10'0 0.0
2015-May-22 04:33N 33°45' W 118°10'2 2.2
2015-May-22 03:29N 33°44' W 118°12'0 0.3
2015-May-22 02:32N 33°45' W 118°12'0 0.0
2015-May-22 01:33N 33°45' W 118°12'0 0.0
2015-May-22 00:31N 33°45' W 118°12'0 0.0
2015-May-21 23:31N 33°45' W 118°12'0 0.4
2015-May-21 22:33N 33°44' W 118°12'3 3.3
2015-May-21 21:34N 33°44' W 118°08'1 1.3
2015-May-21 20:33N 33°45' W 118°10'2 2.3
2015-May-21 19:33N 33°45' W 118°12'3 2.6
2015-May-21 18:34N 33°45' W 118°09'1 0.5
2015-May-21 17:33N 33°45' W 118°09'1 1.0
2015-May-21 16:33N 33°45' W 118°10'2 2.0
2015-May-21 15:33N 33°44' W 118°11'1 0.9
2015-May-21 14:23N 33°45' W 118°12'2 0.7
2015-May-21 11:31N 33°45' W 118°10'1 0.4
2015-May-21 08:33N 33°46' W 118°11'1 1.2
2015-May-21 07:28N 33°45' W 118°10'0 0.4
2015-May-21 06:34N 33°45' W 118°10'0 0.2
2015-May-21 05:25N 33°45' W 118°10'0 0.4
2015-May-21 04:32N 33°45' W 118°10'2 1.9
2015-May-21 03:23N 33°45' W 118°12'0 0.0
2015-May-20 23:33N 33°45' W 118°12'1 1.4
2015-May-20 22:33N 33°45' W 118°11'0 0.4
2015-May-20 21:32N 33°45' W 118°10'2 1.7
2015-May-20 20:29N 33°44' W 118°11'1 0.6
2015-May-20 19:30N 33°44' W 118°11'2 2.0
2015-May-20 18:33N 33°44' W 118°08'0 0.0
2015-May-20 17:33N 33°44' W 118°08'0 0.0
2015-May-20 16:33N 33°44' W 118°08'3 2.4
2015-May-20 15:27N 33°44' W 118°11'1 1.1
2015-May-20 14:34N 33°45' W 118°12'0 0.0
2015-May-20 13:32N 33°45' W 118°12'2 2.1
2015-May-20 12:31N 33°45' W 118°10'0 0.1
2015-May-20 10:33N 33°45' W 118°10'0 0.1
2015-May-20 08:33N 33°45' W 118°10'0 0.0
2015-May-20 06:16N 33°45' W 118°10'0 0.1
2015-May-20 05:33N 33°45' W 118°10'1 1.4
2015-May-20 04:33N 33°46' W 118°11'2 1.7
2015-May-20 03:30N 33°44' W 118°11'1 0.4
2015-May-20 00:04N 33°45' W 118°12'2 3.9
2015-May-19 23:33N 33°45' W 118°10'1 1.4
2015-May-19 22:33N 33°44' W 118°08'2 1.9
2015-May-19 21:33N 33°44' W 118°11'1 1.4
2015-May-19 20:33N 33°44' W 118°12'3 3.1
2015-May-19 19:28N 33°44' W 118°08'1 1.4
2015-May-19 18:32N 33°45' W 118°10'1 0.9
2015-May-19 17:23N 33°46' W 118°11'0 0.0
2015-May-19 16:24N 33°46' W 118°11'2 2.3
2015-May-19 15:34N 33°44' W 118°12'1 0.9
2015-May-19 14:33N 33°45' W 118°12'0 0.1
2015-May-19 13:08N 33°44' W 118°12'2 3.7
2015-May-19 12:33N 33°45' W 118°10'0 0.0
2015-May-19 11:33N 33°45' W 118°10'1 0.6
2015-May-19 10:33N 33°45' W 118°10'1 0.6
2015-May-19 09:33N 33°45' W 118°10'0 0.4
2015-May-19 08:33N 33°45' W 118°10'0 0.2
2015-May-19 07:33N 33°45' W 118°10'1 0.6
2015-May-19 06:33N 33°45' W 118°10'0 0.3
2015-May-19 05:34N 33°45' W 118°10'0 0.4
2015-May-19 04:33N 33°45' W 118°10'2 1.5
2015-May-19 03:23N 33°44' W 118°12'1 0.5
2015-May-19 01:29N 33°45' W 118°12'0 0.0
2015-May-19 00:33N 33°45' W 118°12'0 0.0
2015-May-18 23:34N 33°45' W 118°12'1 1.3
2015-May-18 22:34N 33°44' W 118°11'1 1.3
2015-May-18 21:34N 33°45' W 118°10'0 0.0
2015-May-18 20:33N 33°45' W 118°10'2 2.1
2015-May-18 19:33N 33°45' W 118°12'0 0.0
2015-May-18 18:33N 33°45' W 118°12'0 0.0
2015-May-18 17:30N 33°45' W 118°12'0 0.0
2015-May-18 16:32N 33°45' W 118°12'2 2.2
2015-May-18 15:33N 33°45' W 118°10'2 0.0
2015-May-16 13:11N 33°45' W 118°12'2 3.4
2015-May-16 12:33N 33°45' W 118°10'0 0.0
2015-May-16 11:33N 33°45' W 118°10'0 0.0
2015-May-16 10:33N 33°45' W 118°10'1 0.6
2015-May-16 09:33N 33°45' W 118°10'1 0.6
2015-May-16 08:32N 33°45' W 118°10'0 0.0
2015-May-16 07:33N 33°45' W 118°10'1 0.6
2015-May-16 06:33N 33°45' W 118°10'0 0.0
2015-May-16 05:33N 33°45' W 118°10'0 0.0
2015-May-16 04:33N 33°45' W 118°10'2 1.9
2015-May-16 03:27N 33°44' W 118°12'1 0.2
2015-May-15 22:32N 33°45' W 118°12'0 0.0
2015-May-15 21:33N 33°45' W 118°12'2 2.2
2015-May-15 20:33N 33°45' W 118°10'1 1.3
2015-May-15 19:33N 33°46' W 118°11'1 0.6
2015-May-15 18:33N 33°45' W 118°10'0 0.4
2015-May-15 17:33N 33°45' W 118°10'1 1.2
2015-May-15 16:32N 33°44' W 118°08'3 3.0
2015-May-15 15:33N 33°44' W 118°12'1 0.5
2015-May-15 14:28N 33°45' W 118°12'0 0.0
2015-May-15 13:33N 33°45' W 118°12'0 0.0
2015-May-15 12:33N 33°45' W 118°12'0 0.0
2015-May-15 11:33N 33°45' W 118°12'0 0.0
2015-May-15 10:33N 33°45' W 118°12'0 0.0
2015-May-15 09:33N 33°45' W 118°12'0 0.0
2015-May-15 08:33N 33°45' W 118°12'0 0.0
2015-May-15 07:33N 33°45' W 118°12'0 0.0
2015-May-15 06:33N 33°45' W 118°12'0 0.0
2015-May-15 05:28N 33°45' W 118°12'0 0.0
2015-May-15 04:33N 33°45' W 118°12'0 0.0
2015-May-15 03:32N 33°45' W 118°12'0 0.0
2015-May-15 02:28N 33°45' W 118°12'0 0.0
2015-May-15 01:33N 33°45' W 118°12'0 0.0
2015-May-15 00:33N 33°45' W 118°12'0 0.0
2015-May-14 23:30N 33°45' W 118°12'  

Dump ship's entire track history